createdAt,value
2023-01-30T00:01:00.734Z,77.77
2023-01-30T00:03:29.417Z,76.67
2023-01-30T00:05:56.829Z,76.01
2023-01-30T00:08:24.086Z,76.19
2023-01-30T00:10:51.407Z,76.89
2023-01-30T00:13:18.661Z,77.78
2023-01-30T00:15:45.918Z,78.11
2023-01-30T00:18:13.200Z,78.39
2023-01-30T00:20:40.477Z,78.01
2023-01-30T00:23:07.713Z,77.72
2023-01-30T00:25:35.114Z,77.63
2023-01-30T00:28:02.502Z,77.30
2023-01-30T00:30:30.702Z,77.52
2023-01-30T00:32:59.341Z,76.96
2023-01-30T00:35:28.772Z,76.47
2023-01-30T00:37:57.916Z,76.78
2023-01-30T00:40:26.377Z,76.73
2023-01-30T00:43:13.232Z,76.57
2023-01-30T00:46:03.854Z,76.33
2023-01-30T00:48:32.034Z,77.04
2023-01-30T00:50:59.333Z,76.40
2023-01-30T00:53:27.759Z,75.84
2023-01-30T00:55:56.882Z,76.06
2023-01-30T00:58:24.787Z,76.56
2023-01-30T01:00:52.444Z,76.65
2023-01-30T01:03:20.198Z,75.70
2023-01-30T01:05:47.687Z,75.87
2023-01-30T01:08:15.891Z,75.39
2023-01-30T01:10:43.128Z,75.67
2023-01-30T01:13:10.682Z,75.88
2023-01-30T01:15:38.167Z,76.10
2023-01-30T01:18:06.288Z,76.67
2023-01-30T01:20:33.607Z,77.05
2023-01-30T01:23:00.947Z,76.15
2023-01-30T01:25:28.340Z,76.85
2023-01-30T01:27:55.844Z,76.14
2023-01-30T01:30:23.284Z,76.31
2023-01-30T01:32:50.605Z,75.67
2023-01-30T01:35:20.041Z,75.34
2023-01-30T01:37:47.581Z,75.24
2023-01-30T01:40:38.741Z,74.18
2023-01-30T01:43:22.201Z,75.42
2023-01-30T01:46:21.805Z,75.38
2023-01-30T01:48:52.570Z,75.88
2023-01-30T01:51:28.032Z,75.71
2023-01-30T01:54:02.021Z,75.76
2023-01-30T01:56:32.843Z,75.99
2023-01-30T01:59:09.095Z,75.03
2023-01-30T02:01:38.802Z,75.75
2023-01-30T02:04:10.135Z,75.61
2023-01-30T02:06:39.936Z,75.66
2023-01-30T02:09:09.188Z,74.91
2023-01-30T02:11:47.105Z,75.60
2023-01-30T02:14:14.962Z,75.61
2023-01-30T02:16:44.288Z,75.09
2023-01-30T02:19:39.955Z,75.49
2023-01-30T02:22:16.310Z,75.53
2023-01-30T02:24:44.097Z,75.31
2023-01-30T02:27:23.894Z,75.08
2023-01-30T02:30:26.749Z,76.36
2023-01-30T02:33:28.682Z,75.64
2023-01-30T02:36:09.674Z,75.28
2023-01-30T02:38:47.626Z,75.04
2023-01-30T02:41:42.834Z,75.44
2023-01-30T02:44:16.878Z,75.24
2023-01-30T02:46:54.260Z,74.87
2023-01-30T02:49:29.365Z,75.29
2023-01-30T02:51:58.033Z,75.01
2023-01-30T02:54:25.379Z,74.91
2023-01-30T02:56:58.581Z,75.17
2023-01-30T02:59:35.168Z,75.32
2023-01-30T03:02:17.768Z,74.93
2023-01-30T03:05:03.885Z,76.23
2023-01-30T03:07:50.024Z,76.29
2023-01-30T03:10:28.443Z,75.30
2023-01-30T03:13:07.250Z,75.54
2023-01-30T03:15:46.278Z,75.52
2023-01-30T03:18:13.916Z,76.79
2023-01-30T03:20:41.446Z,76.09
2023-01-30T03:23:09.016Z,74.88
2023-01-30T03:25:38.376Z,75.13
2023-01-30T03:28:06.151Z,74.79
2023-01-30T03:30:33.743Z,75.03
2023-01-30T03:33:08.166Z,76.21
2023-01-30T03:35:37.090Z,77.26
2023-01-30T03:38:04.780Z,77.05
2023-01-30T03:40:32.094Z,76.55
2023-01-30T03:42:59.712Z,77.14
2023-01-30T03:45:26.984Z,77.21
2023-01-30T03:47:54.341Z,76.59
2023-01-30T03:50:21.815Z,77.06
2023-01-30T03:52:49.124Z,77.47
2023-01-30T03:55:19.981Z,78.24
2023-01-30T03:57:47.727Z,78.11
2023-01-30T04:00:16.295Z,77.96
2023-01-30T04:02:43.703Z,78.27
2023-01-30T04:05:14.163Z,78.13
2023-01-30T04:07:46.400Z,78.28
2023-01-30T04:10:15.488Z,78.47
2023-01-30T04:12:43.065Z,78.85
2023-01-30T04:15:11.619Z,78.99
2023-01-30T04:17:59.034Z,79.49
2023-01-30T04:20:46.663Z,78.28
2023-01-30T04:23:15.922Z,77.50
2023-01-30T04:25:48.738Z,78.32
2023-01-30T04:28:18.827Z,78.91
2023-01-30T04:30:46.288Z,78.51
2023-01-30T04:33:36.979Z,80.35
2023-01-30T04:36:08.300Z,80.41
2023-01-30T04:38:36.320Z,80.20
2023-01-30T04:41:04.931Z,79.65
2023-01-30T04:43:34.784Z,78.85
2023-01-30T04:46:23.373Z,78.59
2023-01-30T04:48:50.645Z,78.80
2023-01-30T04:51:17.955Z,78.26
2023-01-30T04:53:45.494Z,78.40
2023-01-30T04:56:14.011Z,78.51
2023-01-30T04:58:42.379Z,78.42
2023-01-30T05:01:41.629Z,79.89
2023-01-30T05:04:09.235Z,79.77
2023-01-30T05:06:37.039Z,80.05
2023-01-30T05:09:04.716Z,79.88
2023-01-30T05:11:33.475Z,80.27
2023-01-30T05:14:00.840Z,80.22
2023-01-30T05:16:28.566Z,80.55
2023-01-30T05:18:55.916Z,81.02
2023-01-30T05:21:26.268Z,80.82
2023-01-30T05:23:54.616Z,80.94
2023-01-30T05:26:22.329Z,80.81
2023-01-30T05:28:54.446Z,80.65
2023-01-30T05:31:21.878Z,80.96
2023-01-30T05:34:00.822Z,80.63
2023-01-30T05:36:31.079Z,80.08
2023-01-30T05:39:07.912Z,80.99
2023-01-30T05:41:35.555Z,80.98
2023-01-30T05:44:02.770Z,81.27
2023-01-30T05:46:30.165Z,80.79
2023-01-30T05:48:57.614Z,81.12
2023-01-30T05:51:26.141Z,80.81
2023-01-30T05:53:53.762Z,80.66
2023-01-30T05:56:21.586Z,80.59
2023-01-30T05:58:53.330Z,80.24
2023-01-30T06:01:20.987Z,81.59
2023-01-30T06:03:48.860Z,82.62
2023-01-30T06:06:16.369Z,82.37
2023-01-30T06:08:43.693Z,82.63
2023-01-30T06:11:13.675Z,83.70
2023-01-30T06:13:41.993Z,84.35
2023-01-30T06:16:11.940Z,84.22
2023-01-30T06:18:39.570Z,83.04
2023-01-30T06:21:07.237Z,82.81
2023-01-30T06:23:34.614Z,82.41
2023-01-30T06:26:03.699Z,83.08
2023-01-30T06:28:32.237Z,82.75
2023-01-30T06:30:59.671Z,82.69
2023-01-30T06:33:27.147Z,83.60
2023-01-30T06:35:54.840Z,83.30
2023-01-30T06:38:22.253Z,84.33
2023-01-30T06:40:50.600Z,84.15
2023-01-30T06:43:18.096Z,84.25
2023-01-30T06:45:45.688Z,83.77
2023-01-30T06:48:13.125Z,83.88
2023-01-30T06:50:40.440Z,84.69
2023-01-30T06:53:08.429Z,84.79
2023-01-30T06:55:36.398Z,84.50
2023-01-30T06:58:14.306Z,84.07
2023-01-30T07:00:42.588Z,85.86
2023-01-30T07:03:17.724Z,86.96
2023-01-30T07:05:49.739Z,85.61
2023-01-30T07:08:17.260Z,85.25
2023-01-30T07:10:45.026Z,84.62
2023-01-30T07:13:12.774Z,84.39
2023-01-30T07:15:40.111Z,84.96
2023-01-30T07:18:08.530Z,86.11
2023-01-30T07:20:35.998Z,87.01
2023-01-30T07:23:03.543Z,87.16
2023-01-30T07:25:30.843Z,87.48
2023-01-30T07:27:59.996Z,86.62
2023-01-30T07:30:28.476Z,86.50
2023-01-30T07:32:57.859Z,86.95
2023-01-30T07:35:27.153Z,84.65
2023-01-30T07:37:54.378Z,84.27
2023-01-30T07:40:22.079Z,80.46
2023-01-30T07:43:00.477Z,81.36
2023-01-30T07:45:44.957Z,82.32
2023-01-30T07:48:14.478Z,83.28
2023-01-30T07:50:42.210Z,83.99
2023-01-30T07:53:11.656Z,84.60
2023-01-30T07:55:38.915Z,84.64
2023-01-30T07:58:06.208Z,85.15
2023-01-30T08:00:34.339Z,87.37
2023-01-30T08:03:01.707Z,87.97
2023-01-30T08:05:29.117Z,88.20
2023-01-30T08:07:56.772Z,88.78
2023-01-30T08:10:24.115Z,87.86
2023-01-30T08:12:51.724Z,86.55
2023-01-30T08:15:20.649Z,85.52
2023-01-30T08:17:56.220Z,86.01
2023-01-30T08:20:24.270Z,86.50
2023-01-30T08:22:51.552Z,85.93
2023-01-30T08:25:19.199Z,86.19
2023-01-30T08:27:47.087Z,84.87
2023-01-30T08:30:14.581Z,84.88
2023-01-30T08:32:41.848Z,85.75
2023-01-30T08:35:09.905Z,86.28
2023-01-30T08:37:39.662Z,86.83
2023-01-30T08:40:08.208Z,87.16
2023-01-30T08:42:35.588Z,85.85
2023-01-30T08:45:03.111Z,86.60
2023-01-30T08:47:31.100Z,85.71
2023-01-30T08:49:58.439Z,85.27
2023-01-30T08:52:25.813Z,86.71
2023-01-30T08:54:53.403Z,86.12
2023-01-30T08:57:20.682Z,85.63
2023-01-30T08:59:48.384Z,85.33
2023-01-30T09:02:15.780Z,86.87
2023-01-30T09:04:43.022Z,85.16
2023-01-30T09:07:10.557Z,85.60
2023-01-30T09:09:37.981Z,85.24
2023-01-30T09:12:05.472Z,85.14
2023-01-30T09:14:32.883Z,86.09
2023-01-30T09:17:00.373Z,85.78
2023-01-30T09:19:28.693Z,85.94
2023-01-30T09:21:56.652Z,85.17
2023-01-30T09:24:27.881Z,85.16
2023-01-30T09:26:57.715Z,84.88
2023-01-30T09:29:28.613Z,85.09
2023-01-30T09:31:56.870Z,85.12
2023-01-30T09:34:28.852Z,84.46
2023-01-30T09:36:57.670Z,84.38
2023-01-30T09:39:24.980Z,85.15
2023-01-30T09:42:04.728Z,85.43
2023-01-30T09:44:41.327Z,84.17
2023-01-30T09:47:12.764Z,84.95
2023-01-30T09:49:48.936Z,85.92
2023-01-30T09:52:35.015Z,85.08
2023-01-30T09:55:22.109Z,86.20
2023-01-30T09:57:49.828Z,86.70
2023-01-30T10:00:26.937Z,85.03
2023-01-30T10:03:05.372Z,90.87
2023-01-30T10:05:46.530Z,67.49
2023-01-30T10:08:38.617Z,67.78
2023-01-30T10:11:31.059Z,77.26
2023-01-30T10:14:32.417Z,79.72
2023-01-30T10:17:21.644Z,82.67
2023-01-30T10:20:20.725Z,84.02
2023-01-30T10:23:05.202Z,84.92
2023-01-30T10:25:47.927Z,85.94
2023-01-30T10:28:30.686Z,85.95
2023-01-30T10:31:09.458Z,85.51
2023-01-30T10:33:44.987Z,86.85
2023-01-30T10:36:28.299Z,87.79
2023-01-30T10:38:57.309Z,84.94
2023-01-30T10:41:47.860Z,83.66
2023-01-30T10:44:18.491Z,84.11
2023-01-30T10:46:57.636Z,85.27
2023-01-30T10:49:44.279Z,84.09
2023-01-30T10:52:43.960Z,84.94
2023-01-30T10:55:36.270Z,83.91
2023-01-30T10:58:18.713Z,84.10
2023-01-30T11:00:46.517Z,84.08
2023-01-30T11:03:32.556Z,86.42
2023-01-30T11:06:06.679Z,85.78
2023-01-30T11:08:35.219Z,85.22
2023-01-30T11:11:25.269Z,84.59
2023-01-30T11:14:01.188Z,85.32
2023-01-30T11:16:28.450Z,85.40
2023-01-30T11:19:19.635Z,85.26
2023-01-30T11:21:51.935Z,84.99
2023-01-30T11:24:23.371Z,83.15
2023-01-30T11:26:52.739Z,83.68
2023-01-30T11:29:31.966Z,84.54
2023-01-30T11:32:11.941Z,83.63
2023-01-30T11:34:39.425Z,83.42
2023-01-30T11:37:25.956Z,84.62
2023-01-30T11:39:53.539Z,86.97
2023-01-30T11:42:25.427Z,85.81
2023-01-30T11:45:14.876Z,86.23
2023-01-30T11:48:05.782Z,86.07
2023-01-30T11:50:41.636Z,85.93
2023-01-30T11:53:29.668Z,85.96
2023-01-30T11:56:08.803Z,86.72
2023-01-30T11:58:39.988Z,87.42
2023-01-30T12:01:09.722Z,88.18
2023-01-30T12:03:47.843Z,88.42
2023-01-30T12:06:32.492Z,87.66
2023-01-30T12:08:59.899Z,86.92
2023-01-30T12:11:32.046Z,88.55
2023-01-30T12:14:13.248Z,89.90
2023-01-30T12:17:01.005Z,88.18
2023-01-30T12:19:38.238Z,87.76
2023-01-30T12:22:21.955Z,87.01
2023-01-30T12:25:11.071Z,85.32
2023-01-30T12:27:48.468Z,85.51
2023-01-30T12:30:24.587Z,86.86
2023-01-30T12:32:57.150Z,86.30
2023-01-30T12:35:32.144Z,87.06
2023-01-30T12:38:17.995Z,86.16
2023-01-30T12:41:19.783Z,87.10
2023-01-30T12:44:16.098Z,86.76
2023-01-30T12:46:46.541Z,86.71
2023-01-30T12:49:29.665Z,86.39
2023-01-30T12:52:41.597Z,87.11
2023-01-30T12:55:35.309Z,86.89
2023-01-30T12:58:13.082Z,85.17
2023-01-30T13:01:22.385Z,88.21
2023-01-30T13:04:15.203Z,87.58
2023-01-30T13:07:09.275Z,89.57
2023-01-30T13:09:45.360Z,87.35
2023-01-30T13:12:27.879Z,85.86
2023-01-30T13:14:55.116Z,86.31
2023-01-30T13:17:49.912Z,86.44
2023-01-30T13:20:28.772Z,87.30
2023-01-30T13:23:02.451Z,86.02
2023-01-30T13:25:41.292Z,85.87
2023-01-30T13:28:20.821Z,85.05
2023-01-30T13:30:49.984Z,86.69
2023-01-30T13:33:22.859Z,87.14
2023-01-30T13:35:54.699Z,85.54
2023-01-30T13:38:27.427Z,85.79
2023-01-30T13:40:57.546Z,84.98
2023-01-30T13:43:31.582Z,85.54
2023-01-30T13:46:01.929Z,86.02
2023-01-30T13:48:42.792Z,85.83
2023-01-30T13:51:31.813Z,84.58
2023-01-30T13:54:11.417Z,84.22
2023-01-30T13:56:54.695Z,83.19
2023-01-30T13:59:36.795Z,83.58
2023-01-30T14:02:04.389Z,83.93
2023-01-30T14:04:41.234Z,85.91
2023-01-30T14:07:34.079Z,86.44
2023-01-30T14:10:10.746Z,86.44
2023-01-30T14:12:49.922Z,86.42
2023-01-30T14:15:18.938Z,85.31
2023-01-30T14:18:00.299Z,84.75
2023-01-30T14:20:30.329Z,84.29
2023-01-30T14:23:01.769Z,83.73
2023-01-30T14:25:29.288Z,84.43
2023-01-30T14:27:59.666Z,84.05
2023-01-30T14:30:45.262Z,83.73
2023-01-30T14:33:21.664Z,84.34
2023-01-30T14:36:14.848Z,84.21
2023-01-30T14:38:44.487Z,84.84
2023-01-30T14:41:27.025Z,85.04
2023-01-30T14:43:54.698Z,84.89
2023-01-30T14:46:22.082Z,84.81
2023-01-30T14:49:01.049Z,86.45
2023-01-30T14:51:43.545Z,85.42
2023-01-30T14:54:14.584Z,85.77
2023-01-30T14:56:46.254Z,85.73
2023-01-30T14:59:16.751Z,85.96
2023-01-30T15:01:59.404Z,85.42
2023-01-30T15:04:54.900Z,83.84
2023-01-30T15:07:23.356Z,84.02
2023-01-30T15:09:57.348Z,83.47
2023-01-30T15:12:43.122Z,82.99
2023-01-30T15:15:19.801Z,83.18
2023-01-30T15:18:10.077Z,82.63
2023-01-30T15:21:15.191Z,83.87
2023-01-30T15:23:49.143Z,83.80
2023-01-30T15:26:35.472Z,82.60
2023-01-30T15:29:30.999Z,81.86
2023-01-30T15:32:03.472Z,81.76
2023-01-30T15:34:32.374Z,82.95
2023-01-30T15:37:00.107Z,83.90
2023-01-30T15:39:28.458Z,83.58
2023-01-30T15:42:04.896Z,83.65
2023-01-30T15:44:53.346Z,83.73
2023-01-30T15:47:48.247Z,83.24
2023-01-30T15:50:15.736Z,83.20
2023-01-30T15:52:48.269Z,82.42
2023-01-30T15:55:27.291Z,82.36
2023-01-30T15:58:04.738Z,82.97
2023-01-30T16:00:36.271Z,82.39
2023-01-30T16:03:05.571Z,82.91
2023-01-30T16:05:32.841Z,80.66
2023-01-30T16:08:10.821Z,80.52
2023-01-30T16:10:46.449Z,79.96
2023-01-30T16:13:13.762Z,79.61
2023-01-30T16:15:47.267Z,78.29
2023-01-30T16:18:33.116Z,78.00
2023-01-30T16:21:05.294Z,77.07
2023-01-30T16:23:38.353Z,76.12
2023-01-30T16:26:08.039Z,75.84
2023-01-30T16:28:35.493Z,75.53
2023-01-30T16:31:05.960Z,75.33
2023-01-30T16:33:37.033Z,75.92
2023-01-30T16:36:27.917Z,74.78
2023-01-30T16:38:55.849Z,75.16
2023-01-30T16:41:31.410Z,75.54
2023-01-30T16:44:17.563Z,75.02
2023-01-30T16:46:48.266Z,74.02
2023-01-30T16:49:22.220Z,73.45
2023-01-30T16:51:50.994Z,71.75
2023-01-30T16:54:24.512Z,71.03
2023-01-30T16:56:54.567Z,70.29
2023-01-30T16:59:29.880Z,69.05
2023-01-30T17:01:59.184Z,68.83
2023-01-30T17:04:29.801Z,69.32
2023-01-30T17:07:00.807Z,68.57
2023-01-30T17:09:33.491Z,68.99
2023-01-30T17:12:00.907Z,69.47
2023-01-30T17:14:31.469Z,69.55
2023-01-30T17:17:12.360Z,69.26
2023-01-30T17:19:39.743Z,68.56
2023-01-30T17:22:09.108Z,68.66
2023-01-30T17:24:36.601Z,69.11
2023-01-30T17:27:04.623Z,69.15
2023-01-30T17:29:42.357Z,68.51
2023-01-30T17:32:12.308Z,68.83
2023-01-30T17:34:41.226Z,68.90
2023-01-30T17:37:17.153Z,69.04
2023-01-30T17:39:44.758Z,67.97
2023-01-30T17:42:13.302Z,67.42
2023-01-30T17:44:41.127Z,68.45
2023-01-30T17:47:11.848Z,68.68
2023-01-30T17:49:40.066Z,68.62
2023-01-30T17:52:07.368Z,68.50
2023-01-30T17:54:34.740Z,67.97
2023-01-30T17:57:09.805Z,67.92
2023-01-30T17:59:37.122Z,67.95
2023-01-30T18:02:05.135Z,67.45
2023-01-30T18:04:32.463Z,67.37
2023-01-30T18:07:04.388Z,68.12
2023-01-30T18:09:32.463Z,67.73
2023-01-30T18:11:59.785Z,66.97
2023-01-30T18:14:27.156Z,67.21
2023-01-30T18:16:59.994Z,68.02
2023-01-30T18:19:31.628Z,67.99
2023-01-30T18:21:59.180Z,67.96
2023-01-30T18:24:37.827Z,67.19
2023-01-30T18:27:19.428Z,67.49
2023-01-30T18:29:46.773Z,67.22
2023-01-30T18:32:14.329Z,66.98
2023-01-30T18:34:41.980Z,67.12
2023-01-30T18:37:16.803Z,66.35
2023-01-30T18:39:47.734Z,66.51
2023-01-30T18:42:15.123Z,66.59
2023-01-30T18:44:42.476Z,67.59
2023-01-30T18:47:09.714Z,67.12
2023-01-30T18:49:37.076Z,66.94
2023-01-30T18:52:04.976Z,66.47
2023-01-30T18:54:32.579Z,67.38
2023-01-30T18:57:00.428Z,68.66
2023-01-30T18:59:27.800Z,67.29
2023-01-30T19:01:55.068Z,67.81
2023-01-30T19:04:23.818Z,66.65
2023-01-30T19:06:51.113Z,66.28
2023-01-30T19:09:19.126Z,67.11
2023-01-30T19:12:04.738Z,66.75
2023-01-30T19:14:32.067Z,66.19
2023-01-30T19:16:59.455Z,67.34
2023-01-30T19:19:27.265Z,69.11
2023-01-30T19:21:54.624Z,68.89
2023-01-30T19:24:22.339Z,70.38
2023-01-30T19:26:50.459Z,70.73
2023-01-30T19:29:18.372Z,70.05
2023-01-30T19:31:47.382Z,69.04
2023-01-30T19:34:15.175Z,69.11
2023-01-30T19:36:42.717Z,68.93
2023-01-30T19:39:10.252Z,69.33
2023-01-30T19:41:37.578Z,70.47
2023-01-30T19:44:06.802Z,70.41
2023-01-30T19:46:34.680Z,70.41
2023-01-30T19:49:03.467Z,70.05
2023-01-30T19:51:33.660Z,70.12
2023-01-30T19:54:04.913Z,69.47
2023-01-30T19:56:33.192Z,70.06
2023-01-30T19:59:01.171Z,70.25
2023-01-30T20:01:32.546Z,70.66
2023-01-30T20:04:01.776Z,70.17
2023-01-30T20:06:31.809Z,70.46
2023-01-30T20:09:01.642Z,70.05
2023-01-30T20:11:29.914Z,70.50
2023-01-30T20:13:58.491Z,70.21
2023-01-30T20:16:27.746Z,69.75
2023-01-30T20:19:00.606Z,70.15
2023-01-30T20:21:30.076Z,71.53
2023-01-30T20:23:58.293Z,70.91
2023-01-30T20:26:28.535Z,71.22
2023-01-30T20:28:56.763Z,70.78
2023-01-30T20:31:26.014Z,69.89
2023-01-30T20:33:55.796Z,69.36
2023-01-30T20:36:24.864Z,69.25
2023-01-30T20:38:53.642Z,69.15
2023-01-30T20:41:25.760Z,69.48
2023-01-30T20:43:57.880Z,71.18
2023-01-30T20:46:30.148Z,71.54
2023-01-30T20:48:59.145Z,71.29
2023-01-30T20:51:28.534Z,70.66
2023-01-30T20:53:58.791Z,71.15
2023-01-30T20:56:26.861Z,71.47
2023-01-30T20:58:54.157Z,71.42
2023-01-30T21:01:23.772Z,71.70
2023-01-30T21:03:53.188Z,71.73
2023-01-30T21:06:41.116Z,72.64
2023-01-30T21:09:17.603Z,72.51
2023-01-30T21:11:45.206Z,71.91
2023-01-30T21:14:12.751Z,71.50
2023-01-30T21:16:40.283Z,72.02
2023-01-30T21:19:11.146Z,72.30
2023-01-30T21:21:46.970Z,70.84
2023-01-30T21:24:15.177Z,71.05
2023-01-30T21:26:46.177Z,71.49
2023-01-30T21:29:15.581Z,71.39
2023-01-30T21:31:44.290Z,71.67
2023-01-30T21:34:12.453Z,71.96
2023-01-30T21:36:40.332Z,71.54
2023-01-30T21:39:26.321Z,71.42
2023-01-30T21:42:12.049Z,71.88
2023-01-30T21:44:41.088Z,71.88
2023-01-30T21:47:08.729Z,71.77
2023-01-30T21:49:37.001Z,71.73
2023-01-30T21:52:04.571Z,71.77
2023-01-30T21:54:31.933Z,72.15
2023-01-30T21:56:59.300Z,72.58
2023-01-30T21:59:26.687Z,72.35
2023-01-30T22:01:54.013Z,72.52
2023-01-30T22:04:21.459Z,74.46
2023-01-30T22:06:48.785Z,75.14
2023-01-30T22:09:16.190Z,74.32
2023-01-30T22:11:43.876Z,73.61
2023-01-30T22:14:14.923Z,73.63
2023-01-30T22:16:42.301Z,73.26
2023-01-30T22:19:09.978Z,73.78
2023-01-30T22:21:39.943Z,73.43
2023-01-30T22:24:08.866Z,73.67
2023-01-30T22:26:36.674Z,73.66
2023-01-30T22:29:05.144Z,74.36
2023-01-30T22:31:37.425Z,73.76
2023-01-30T22:34:05.008Z,74.24
2023-01-30T22:36:33.982Z,73.91
2023-01-30T22:39:02.214Z,74.12
2023-01-30T22:41:32.539Z,74.07
2023-01-30T22:44:00.184Z,73.81
2023-01-30T22:46:31.401Z,73.65
2023-01-30T22:49:00.195Z,73.83
2023-01-30T22:51:33.807Z,73.82
2023-01-30T22:54:09.988Z,73.99
2023-01-30T22:56:40.916Z,73.73
2023-01-30T22:59:08.948Z,73.67
2023-01-30T23:01:41.656Z,74.04
2023-01-30T23:04:18.636Z,74.48
2023-01-30T23:06:49.276Z,74.29
2023-01-30T23:09:25.529Z,74.65
2023-01-30T23:12:16.765Z,74.88
2023-01-30T23:14:45.010Z,74.56
2023-01-30T23:17:39.163Z,74.39
2023-01-30T23:20:12.805Z,74.29
2023-01-30T23:22:40.605Z,74.13
2023-01-30T23:25:09.122Z,74.71
2023-01-30T23:27:40.103Z,74.73
2023-01-30T23:30:11.539Z,74.38
2023-01-30T23:32:39.947Z,74.19
2023-01-30T23:35:10.406Z,73.88
2023-01-30T23:37:59.732Z,74.07
2023-01-30T23:40:27.590Z,75.21
2023-01-30T23:42:54.940Z,74.99
2023-01-30T23:45:25.586Z,74.46
2023-01-30T23:47:53.724Z,73.40
2023-01-30T23:50:29.477Z,74.45
2023-01-30T23:53:00.101Z,74.60
2023-01-30T23:55:27.529Z,74.72
2023-01-30T23:57:54.808Z,74.93
